Time;durP1;ratioP1;P1;durP2;ratioP2;P2;SDS_P1;SDS_P2;PMS_P1;PMS_P2;Temp;Humidity;BMP_temperature;BMP_pressure;BME280_temperature;BME280_humidity;BME280_pressure;Samples;Min_cycle;Max_cycle;Signal;HPM_P1;HPM_P2
2022/07/07 00:01:15;;;;;;;11.13;3.75;;;16.50;99.90;;;;;;4199372;28;20052;-90
2022/07/07 00:03:16;;;;;;;10.23;4.20;;;16.50;99.90;;;;;;4199097;28;20052;-89
2022/07/07 00:05:16;;;;;;;9.93;4.70;;;16.40;99.90;;;;;;4181222;28;20052;-89
2022/07/07 00:07:18;;;;;;;11.80;4.30;;;16.50;99.90;;;;;;4213673;28;20056;-89
2022/07/07 00:09:19;;;;;;;10.25;4.28;;;16.50;99.90;;;;;;4197749;28;20044;-90
2022/07/07 00:11:20;;;;;;;7.53;3.88;;;16.50;99.90;;;;;;4181140;28;20083;-89
2022/07/07 00:13:21;;;;;;;7.35;3.28;;;16.50;99.90;;;;;;4198574;28;20125;-89
2022/07/07 00:15:23;;;;;;;7.82;3.58;;;16.50;99.90;;;;;;4197154;28;20037;-90
2022/07/07 00:17:24;;;;;;;5.75;3.60;;;16.50;99.90;;;;;;4198321;28;20500;-89
2022/07/07 00:19:26;;;;;;;7.10;3.25;;;16.50;99.90;;;;;;4197756;28;20049;-89
2022/07/07 00:21:31;;;;;;;6.95;3.25;;;16.50;99.90;;;;;;4198504;28;20121;-89
2022/07/07 00:23:33;;;;;;;7.03;3.20;;;16.50;99.90;;;;;;4197374;28;20071;-89
2022/07/07 00:25:36;;;;;;;9.13;2.97;;;16.50;99.90;;;;;;4196647;28;20044;-89
2022/07/07 00:27:37;;;;;;;8.63;3.10;;;16.50;99.90;;;;;;4181093;28;20053;-90
2022/07/07 00:29:37;;;;;;;7.65;2.90;;;16.50;99.90;;;;;;4216125;28;20084;-89
2022/07/07 00:31:38;;;;;;;7.72;3.10;;;16.50;99.90;;;;;;4192802;28;20049;-89
2022/07/07 00:33:39;;;;;;;8.10;3.20;;;16.50;99.90;;;;;;4206732;28;20048;-90
2022/07/07 00:35:40;;;;;;;4.43;2.88;;;16.50;99.90;;;;;;4182240;28;20045;-90
2022/07/07 00:37:41;;;;;;;5.40;3.15;;;16.40;99.90;;;;;;4198366;28;20048;-90
2022/07/07 00:39:42;;;;;;;7.30;3.28;;;16.40;99.90;;;;;;4181391;28;20048;-90
2022/07/07 00:41:43;;;;;;;7.05;3.22;;;16.40;99.90;;;;;;4214829;28;20048;-90
2022/07/07 00:43:44;;;;;;;9.38;3.40;;;16.40;99.90;;;;;;4181331;28;20048;-91
2022/07/07 00:45:48;;;;;;;7.28;2.80;;;16.40;99.90;;;;;;4183157;28;20140;-89
2022/07/07 00:47:51;;;;;;;7.75;3.30;;;16.30;99.90;;;;;;4200599;28;20091;-89
2022/07/07 00:49:54;;;;;;;6.63;2.75;;;16.30;99.90;;;;;;4234326;28;20458;-89
2022/07/07 00:51:55;;;;;;;7.10;2.85;;;16.30;99.90;;;;;;4183747;28;20037;-89
2022/07/07 00:53:57;;;;;;;6.88;2.38;;;16.30;99.90;;;;;;4200479;28;20044;-89
2022/07/07 00:56:02;;;;;;;3.88;1.23;;;16.20;99.90;;;;;;4183406;28;20037;-89
2022/07/07 00:58:03;;;;;;;7.82;2.72;;;16.20;99.90;;;;;;4183830;28;20116;-90
2022/07/07 01:00:14;;;;;;;3.28;1.58;;;16.10;99.90;;;;;;4200311;28;20044;-89
2022/07/07 01:02:16;;;;;;;6.55;1.90;;;16.10;99.90;;;;;;4201028;28;20543;-90
2022/07/07 01:04:17;;;;;;;4.45;2.40;;;16.10;99.90;;;;;;4185557;28;20049;-89
2022/07/07 01:06:19;;;;;;;4.15;1.58;;;16.10;99.90;;;;;;4184371;28;20560;-90
2022/07/07 01:08:20;;;;;;;7.07;2.47;;;16.10;99.90;;;;;;4184951;28;20439;-90
2022/07/07 01:10:21;;;;;;;8.05;1.60;;;16.10;99.90;;;;;;4201668;28;20044;-90
2022/07/07 01:12:22;;;;;;;4.47;2.00;;;16.00;99.90;;;;;;4185098;28;20049;-91
2022/07/07 01:14:24;;;;;;;7.22;1.70;;;16.00;99.90;;;;;;4185027;28;20045;-90
2022/07/07 01:16:32;;;;;;;4.15;1.65;;;16.00;99.90;;;;;;4184107;28;20178;-91
2022/07/07 01:18:33;;;;;;;4.35;1.90;;;15.90;99.90;;;;;;4184517;28;20045;-90
2022/07/07 01:20:34;;;;;;;4.10;1.63;;;16.00;99.90;;;;;;4192369;28;20044;-89
2022/07/07 01:22:36;;;;;;;4.80;2.20;;;16.00;99.90;;;;;;4197746;28;20045;-90
2022/07/07 01:24:37;;;;;;;9.57;2.40;;;15.90;99.90;;;;;;4167274;28;20053;-90
2022/07/07 01:26:39;;;;;;;5.28;1.65;;;15.90;99.90;;;;;;4183139;28;20045;-91
2022/07/07 01:28:41;;;;;;;7.97;2.17;;;15.90;99.90;;;;;;4183450;28;20061;-90
2022/07/07 01:30:42;;;;;;;11.57;3.22;;;15.90;99.90;;;;;;4167755;28;20059;-90
2022/07/07 01:32:43;;;;;;;9.20;2.08;;;15.90;99.90;;;;;;4183710;28;20099;-91
2022/07/07 01:34:46;;;;;;;3.92;1.80;;;15.90;99.90;;;;;;4183644;28;20045;-91
2022/07/07 01:36:46;;;;;;;10.75;2.33;;;15.90;99.90;;;;;;4183588;28;20044;-91
2022/07/07 01:38:47;;;;;;;4.40;1.77;;;15.90;99.90;;;;;;4183217;28;20041;-91
2022/07/07 01:40:48;;;;;;;4.35;2.03;;;15.90;99.90;;;;;;4182864;28;20073;-91
2022/07/07 01:42:51;;;;;;;4.15;1.85;;;15.90;99.90;;;;;;4182433;28;20056;-91
2022/07/07 01:44:52;;;;;;;9.80;2.65;;;15.90;99.90;;;;;;4182444;28;20044;-89
2022/07/07 01:46:53;;;;;;;5.63;2.10;;;15.90;99.90;;;;;;4181940;28;20080;-89
2022/07/07 01:48:54;;;;;;;8.05;2.60;;;15.80;99.90;;;;;;4198944;28;20063;-89
2022/07/07 01:50:55;;;;;;;5.18;2.50;;;15.80;99.90;;;;;;4181726;28;20517;-90
2022/07/07 01:52:57;;;;;;;4.75;2.22;;;15.90;99.90;;;;;;4201944;28;20119;-90
2022/07/07 01:54:58;;;;;;;6.28;2.80;;;15.90;99.90;;;;;;4181512;28;20048;-90
2022/07/07 01:57:02;;;;;;;7.95;2.75;;;15.90;99.90;;;;;;4204542;28;20425;-90
2022/07/07 01:59:03;;;;;;;10.55;2.97;;;15.90;99.90;;;;;;4193803;28;20045;-90
2022/07/07 02:01:05;;;;;;;9.80;2.42;;;15.90;99.90;;;;;;4182097;28;20084;-90
2022/07/07 02:03:06;;;;;;;10.02;2.70;;;15.90;99.90;;;;;;4171515;28;20071;-90
2022/07/07 02:05:07;;;;;;;7.43;3.47;;;15.90;99.90;;;;;;4195010;28;20083;-90
2022/07/07 02:07:08;;;;;;;6.43;2.53;;;15.90;99.90;;;;;;4182649;28;20052;-90
2022/07/07 02:09:12;;;;;;;8.48;2.20;;;15.90;99.90;;;;;;4182961;28;20464;-90
2022/07/07 02:11:13;;;;;;;14.02;2.55;;;15.90;99.90;;;;;;4199648;28;20075;-89
2022/07/07 02:13:14;;;;;;;9.77;1.90;;;15.90;99.90;;;;;;4199192;28;20052;-90
2022/07/07 02:15:14;;;;;;;6.60;1.75;;;15.90;99.90;;;;;;4188211;28;20052;-89
2022/07/07 02:17:17;;;;;;;4.18;1.35;;;15.90;99.90;;;;;;4199605;28;20053;-89
2022/07/07 02:19:19;;;;;;;4.80;1.40;;;15.80;99.90;;;;;;4171330;28;20552;-89
2022/07/07 02:21:21;;;;;;;4.65;1.20;;;15.90;99.90;;;;;;4199601;28;20040;-89
2022/07/07 02:23:22;;;;;;;8.18;1.42;;;15.80;99.90;;;;;;4191549;28;20048;-90
2022/07/07 02:25:28;;;;;;;6.82;1.40;;;15.80;99.90;;;;;;4228596;28;20044;-90
2022/07/07 02:27:30;;;;;;;5.97;1.77;;;15.80;99.90;;;;;;4170701;28;20406;-90
2022/07/07 02:29:31;;;;;;;11.32;2.10;;;15.80;99.90;;;;;;4199861;28;20052;-88
2022/07/07 02:31:33;;;;;;;6.13;1.60;;;15.80;99.90;;;;;;4167266;28;20070;-90
2022/07/07 02:33:34;;;;;;;9.48;2.13;;;16.00;99.90;;;;;;4200486;28;20045;-90
2022/07/07 02:35:35;;;;;;;7.65;1.75;;;15.80;99.90;;;;;;4215279;28;20131;-89
2022/07/07 02:37:36;;;;;;;7.32;1.83;;;15.80;99.90;;;;;;4198457;28;20102;-89
2022/07/07 02:39:38;;;;;;;7.35;1.63;;;15.80;99.90;;;;;;4183172;28;20474;-89
2022/07/07 02:41:39;;;;;;;6.75;2.05;;;15.90;99.90;;;;;;4189873;28;20049;-90
2022/07/07 02:43:43;;;;;;;5.30;1.83;;;15.80;99.90;;;;;;4199335;28;20072;-89
2022/07/07 02:45:46;;;;;;;9.43;1.60;;;15.90;99.90;;;;;;4183256;28;20532;-89
2022/07/07 02:47:46;;;;;;;6.60;2.38;;;15.90;99.90;;;;;;4200654;28;20068;-89
2022/07/07 02:49:50;;;;;;;8.77;1.92;;;15.90;99.90;;;;;;4200538;28;20549;-89
2022/07/07 02:51:52;;;;;;;9.98;1.55;;;15.70;99.90;;;;;;4171568;28;20037;-90
2022/07/07 02:53:54;;;;;;;7.43;1.85;;;15.90;99.90;;;;;;4183923;28;20083;-90
2022/07/07 02:55:55;;;;;;;5.10;1.35;;;15.90;99.90;;;;;;4182474;28;20488;-90
2022/07/07 02:57:57;;;;;;;11.30;2.00;;;15.90;99.90;;;;;;4214923;28;20051;-90
2022/07/07 02:59:58;;;;;;;5.20;1.20;;;15.90;99.90;;;;;;4182167;28;20049;-90
2022/07/07 03:01:59;;;;;;;12.20;2.00;;;15.90;99.90;;;;;;4232410;28;20044;-90
2022/07/07 03:04:01;;;;;;;10.80;1.90;;;15.90;99.90;;;;;;4178264;28;20037;-90
2022/07/07 03:06:03;;;;;;;5.68;1.40;;;16.00;99.90;;;;;;4182163;28;20520;-90
2022/07/07 03:08:04;;;;;;;10.25;2.10;;;15.90;99.90;;;;;;4181497;28;20048;-90
2022/07/07 03:10:07;;;;;;;10.68;2.70;;;15.90;99.90;;;;;;4198579;28;20404;-90
2022/07/07 03:12:08;;;;;;;8.10;1.80;;;15.90;99.90;;;;;;4183588;28;20049;-91
2022/07/07 03:14:12;;;;;;;9.27;1.70;;;15.90;99.90;;;;;;4189204;28;20051;-91
2022/07/07 03:16:14;;;;;;;7.95;1.40;;;15.90;99.90;;;;;;4183856;28;20053;-90
2022/07/07 03:18:16;;;;;;;12.35;2.50;;;15.90;99.90;;;;;;4184214;28;20052;-92
2022/07/07 03:20:17;;;;;;;7.18;2.95;;;15.80;99.90;;;;;;4174982;28;20051;-87
2022/07/07 03:22:20;;;;;;;12.68;2.40;;;15.90;99.90;;;;;;4198323;28;20071;-87
2022/07/07 03:24:22;;;;;;;10.13;2.17;;;15.90;99.90;;;;;;4195855;28;20040;-86
2022/07/07 03:26:28;;;;;;;6.07;1.27;;;15.90;99.90;;;;;;4177561;28;20087;-87
2022/07/07 03:28:29;;;;;;;8.50;1.00;;;15.90;99.90;;;;;;4182855;28;20053;-87
2022/07/07 03:30:31;;;;;;;3.78;0.80;;;15.80;99.90;;;;;;4182989;28;20401;-86
2022/07/07 03:32:32;;;;;;;2.78;0.82;;;15.80;99.90;;;;;;4197041;28;20041;-88
2022/07/07 03:34:33;;;;;;;7.68;0.68;;;15.80;99.90;;;;;;4212452;28;20441;-87
2022/07/07 03:36:36;;;;;;;4.47;0.57;;;15.80;99.90;;;;;;4197729;28;20060;-88
2022/07/07 03:38:37;;;;;;;4.88;0.90;;;15.80;99.90;;;;;;4212719;28;20044;-86
2022/07/07 03:40:41;;;;;;;6.35;0.68;;;15.70;99.90;;;;;;4213117;28;20044;-86
2022/07/07 03:42:42;;;;;;;7.47;1.05;;;15.70;99.90;;;;;;4213548;28;20123;-87
2022/07/07 03:44:44;;;;;;;9.32;0.90;;;15.70;99.90;;;;;;4199744;28;20057;-88
2022/07/07 03:46:44;;;;;;;7.28;1.00;;;15.60;99.90;;;;;;4210333;28;20044;-88
2022/07/07 03:48:58;;;;;;;4.47;0.63;;;15.70;99.90;;;;;;4198564;28;20056;-87
2022/07/07 03:51:00;;;;;;;5.05;0.65;;;15.70;99.90;;;;;;4203089;28;20047;-87
2022/07/07 03:53:01;;;;;;;3.80;0.80;;;15.60;99.90;;;;;;4185353;28;20098;-87
2022/07/07 03:55:11;;;;;;;5.38;0.40;;;15.60;99.90;;;;;;4202527;28;20074;-88
2022/07/07 03:57:14;;;;;;;6.72;0.50;;;15.60;99.90;;;;;;4206424;28;20052;-87
2022/07/07 03:59:18;;;;;;;4.22;0.55;;;15.60;99.90;;;;;;4188689;28;20056;-88
2022/07/07 04:01:19;;;;;;;4.35;0.40;;;15.60;99.90;;;;;;4211931;28;20045;-87
2022/07/07 04:03:28;;;;;;;7.65;0.88;;;15.60;99.90;;;;;;4200515;28;20044;-87
2022/07/07 04:05:30;;;;;;;5.10;0.88;;;15.60;99.90;;;;;;4199112;28;20072;-87
2022/07/07 04:07:33;;;;;;;5.50;0.63;;;15.60;99.90;;;;;;4180669;28;20056;-87
2022/07/07 04:09:36;;;;;;;5.72;0.60;;;15.60;99.90;;;;;;4196718;28;20063;-87
2022/07/07 04:11:38;;;;;;;5.85;0.60;;;15.60;99.90;;;;;;4197822;28;20494;-87
2022/07/07 04:13:39;;;;;;;3.33;0.50;;;15.50;99.90;;;;;;4196544;28;20056;-86
2022/07/07 04:15:40;;;;;;;6.88;0.50;;;15.40;99.90;;;;;;4197808;28;20124;-87
2022/07/07 04:17:41;;;;;;;4.22;0.70;;;15.40;99.90;;;;;;4198878;28;20040;-87
2022/07/07 04:19:42;;;;;;;13.30;1.25;;;15.40;99.90;;;;;;4193474;28;20044;-88
2022/07/07 04:21:43;;;;;;;6.53;0.90;;;15.40;99.90;;;;;;4180378;28;20079;-86
2022/07/07 04:23:44;;;;;;;6.07;1.38;;;15.40;99.90;;;;;;4197320;28;20581;-87
2022/07/07 04:25:48;;;;;;;9.23;1.92;;;15.40;99.90;;;;;;4195929;28;20127;-88
2022/07/07 04:27:50;;;;;;;5.85;0.82;;;15.40;99.90;;;;;;4198830;28;20040;-89
2022/07/07 04:29:51;;;;;;;10.90;1.88;;;15.40;99.90;;;;;;4198267;28;20051;-86
2022/07/07 04:31:51;;;;;;;9.07;1.05;;;15.40;99.90;;;;;;4182614;28;20079;-87
2022/07/07 04:33:52;;;;;;;6.65;0.93;;;15.40;99.90;;;;;;4164525;28;20489;-86
2022/07/07 04:35:53;;;;;;;6.40;1.38;;;15.40;99.90;;;;;;4198067;28;20086;-92
2022/07/07 04:37:54;;;;;;;8.50;1.23;;;15.40;99.90;;;;;;4165128;28;20127;-91
2022/07/07 04:39:57;;;;;;;5.68;0.90;;;15.30;99.90;;;;;;4164399;28;20365;-91
2022/07/07 04:41:57;;;;;;;4.93;1.00;;;15.30;99.90;;;;;;4180169;28;20076;-90
2022/07/07 04:43:58;;;;;;;11.43;1.08;;;15.30;99.90;;;;;;4164722;28;20041;-91
2022/07/07 04:45:59;;;;;;;7.18;0.90;;;15.30;99.90;;;;;;4180920;28;20460;-91
2022/07/07 04:48:00;;;;;;;7.68;1.20;;;15.20;99.90;;;;;;4164351;28;20053;-91
2022/07/07 04:50:02;;;;;;;6.68;0.90;;;15.30;99.90;;;;;;4164503;28;20049;-91
2022/07/07 04:52:03;;;;;;;8.85;1.45;;;15.30;99.90;;;;;;4214006;28;20075;-90
2022/07/07 04:54:05;;;;;;;4.00;0.70;;;15.40;99.90;;;;;;4172922;28;20056;-91
2022/07/07 04:56:06;;;;;;;5.38;1.25;;;15.40;99.90;;;;;;4197973;28;20076;-91
2022/07/07 04:58:06;;;;;;;6.57;0.80;;;15.40;99.90;;;;;;4201229;28;20086;-91
2022/07/07 05:00:08;;;;;;;8.90;1.60;;;15.40;99.90;;;;;;4173016;28;20041;-90
2022/07/07 05:02:08;;;;;;;8.68;1.20;;;15.40;99.90;;;;;;4163874;28;20042;-91
2022/07/07 05:04:09;;;;;;;5.93;1.15;;;15.40;99.90;;;;;;4164128;28;20049;-90
2022/07/07 05:06:10;;;;;;;8.05;1.88;;;15.50;99.90;;;;;;4164398;28;20053;-90
2022/07/07 05:08:11;;;;;;;8.15;1.15;;;15.50;99.90;;;;;;4164191;28;20081;-90
2022/07/07 05:10:12;;;;;;;8.63;1.27;;;15.50;99.90;;;;;;4182859;28;20052;-90
2022/07/07 05:12:14;;;;;;;8.98;1.42;;;15.50;99.90;;;;;;4164243;28;20048;-90
2022/07/07 05:14:16;;;;;;;6.60;1.65;;;15.50;99.90;;;;;;4180688;28;20041;-90
2022/07/07 05:16:18;;;;;;;7.07;1.30;;;15.50;99.90;;;;;;4164155;28;20046;-90
2022/07/07 05:18:21;;;;;;;7.20;1.35;;;15.60;99.90;;;;;;4164120;28;20112;-91
2022/07/07 05:20:22;;;;;;;7.90;1.85;;;15.50;99.90;;;;;;4167409;28;20038;-91
2022/07/07 05:22:25;;;;;;;3.42;1.02;;;15.50;99.90;;;;;;4184469;28;20513;-91
2022/07/07 05:24:27;;;;;;;7.28;1.83;;;15.50;99.90;;;;;;4181178;28;20044;-88
2022/07/07 05:26:28;;;;;;;5.30;1.02;;;15.50;99.90;;;;;;4164345;28;20136;-89
2022/07/07 05:28:31;;;;;;;9.32;1.38;;;15.60;99.90;;;;;;4180019;28;20064;-89
2022/07/07 05:30:33;;;;;;;9.65;1.65;;;15.50;99.90;;;;;;4164515;28;20125;-90
2022/07/07 05:32:36;;;;;;;6.70;1.30;;;15.50;99.90;;;;;;4183092;28;20049;-90
2022/07/07 05:34:37;;;;;;;7.90;1.08;;;15.50;99.90;;;;;;4183308;28;20048;-90
2022/07/07 05:36:42;;;;;;;8.13;1.23;;;15.50;99.90;;;;;;4199288;28;20074;-90
2022/07/07 05:38:45;;;;;;;9.40;1.73;;;15.50;99.90;;;;;;4166803;28;20045;-90
2022/07/07 05:40:46;;;;;;;10.35;1.30;;;15.50;99.90;;;;;;4183724;28;20045;-90
2022/07/07 05:42:46;;;;;;;14.85;2.67;;;15.50;99.90;;;;;;4166917;28;20528;-89
2022/07/07 05:44:47;;;;;;;6.80;1.35;;;15.50;99.90;;;;;;4200429;28;20063;-89
2022/07/07 05:46:48;;;;;;;13.40;1.00;;;15.50;99.90;;;;;;4166968;28;20482;-89
2022/07/07 05:48:52;;;;;;;5.95;1.58;;;15.50;99.90;;;;;;4225729;28;20055;-90
2022/07/07 05:50:52;;;;;;;9.18;1.50;;;15.50;99.90;;;;;;4232785;28;20099;-90
2022/07/07 05:52:53;;;;;;;5.95;1.70;;;15.60;99.90;;;;;;4199750;28;20545;-91
2022/07/07 05:54:56;;;;;;;5.53;0.82;;;15.60;99.90;;;;;;4183639;28;20036;-91
2022/07/07 05:56:57;;;;;;;7.85;1.30;;;15.60;99.90;;;;;;4185752;28;20120;-90
2022/07/07 05:58:58;;;;;;;5.72;1.35;;;15.60;99.90;;;;;;4187608;28;20520;-90
2022/07/07 06:00:59;;;;;;;10.77;1.00;;;15.60;99.90;;;;;;4244243;28;20069;-91
2022/07/07 06:03:02;;;;;;;11.25;1.35;;;15.70;99.90;;;;;;4194472;28;20041;-91
2022/07/07 06:05:03;;;;;;;12.73;1.20;;;15.70;99.90;;;;;;4185776;28;20056;-89
2022/07/07 06:07:04;;;;;;;13.25;2.22;;;15.70;99.90;;;;;;4185368;28;20469;-88
2022/07/07 06:09:06;;;;;;;8.32;1.13;;;15.70;99.90;;;;;;4185120;28;20559;-89
2022/07/07 06:11:08;;;;;;;4.93;1.30;;;15.70;99.90;;;;;;4200787;28;20048;-89
2022/07/07 06:13:09;;;;;;;5.15;1.55;;;15.70;99.90;;;;;;4200774;28;20106;-89
2022/07/07 06:15:14;;;;;;;9.48;1.25;;;15.80;99.90;;;;;;4202578;28;20496;-90
2022/07/07 06:17:19;;;;;;;6.82;1.50;;;15.70;99.90;;;;;;4186926;28;20092;-89
2022/07/07 06:19:21;;;;;;;5.70;1.48;;;15.80;99.90;;;;;;4206457;28;20036;-92
2022/07/07 06:21:22;;;;;;;9.88;1.63;;;15.80;99.90;;;;;;4185974;28;20041;-91
2022/07/07 06:23:26;;;;;;;3.92;1.20;;;15.80;99.90;;;;;;4183966;28;20066;-91
2022/07/07 06:25:27;;;;;;;7.15;1.25;;;15.90;99.90;;;;;;4185683;28;20124;-91
2022/07/07 06:27:28;;;;;;;11.45;2.42;;;16.00;99.90;;;;;;4218208;28;20059;-91
2022/07/07 06:29:31;;;;;;;5.80;0.95;;;16.10;99.90;;;;;;4184694;28;20045;-91
2022/07/07 06:31:33;;;;;;;5.05;0.77;;;16.20;99.90;;;;;;4203505;28;20052;-90
2022/07/07 06:33:35;;;;;;;6.93;1.38;;;16.20;99.90;;;;;;4191269;28;20070;-90
2022/07/07 06:35:35;;;;;;;6.50;1.63;;;16.20;99.90;;;;;;4185059;28;20044;-90
2022/07/07 06:37:36;;;;;;;2.95;1.10;;;16.20;99.90;;;;;;4192512;28;20049;-91
2022/07/07 06:39:38;;;;;;;4.40;0.75;;;16.10;99.90;;;;;;4193821;28;20493;-90
2022/07/07 06:41:40;;;;;;;3.95;0.70;;;16.10;99.90;;;;;;4197016;28;20045;-91
2022/07/07 06:43:41;;;;;;;7.68;1.08;;;16.00;99.90;;;;;;4191147;28;20107;-91
2022/07/07 06:45:42;;;;;;;4.30;0.88;;;16.00;99.90;;;;;;4210489;28;20044;-90
2022/07/07 06:47:42;;;;;;;5.93;0.95;;;16.10;99.90;;;;;;4191530;28;20132;-90
2022/07/07 06:49:44;;;;;;;5.88;1.38;;;16.20;99.90;;;;;;4196899;28;20048;-90
2022/07/07 06:51:49;;;;;;;7.22;0.85;;;16.40;99.90;;;;;;4212549;28;20131;-90
2022/07/07 06:53:51;;;;;;;4.22;0.55;;;16.50;99.90;;;;;;4201704;28;20024;-91
2022/07/07 06:56:02;;;;;;;2.85;0.90;;;16.60;99.90;;;;;;4201270;28;20025;-91
2022/07/07 06:58:03;;;;;;;3.60;0.43;;;16.60;99.90;;;;;;4199489;28;20108;-91
2022/07/07 07:00:07;;;;;;;7.70;1.75;;;16.60;99.90;;;;;;4201506;28;20049;-92
2022/07/07 07:02:07;;;;;;;4.47;0.65;;;16.70;99.90;;;;;;4209774;28;20048;-92
2022/07/07 07:04:09;;;;;;;4.55;0.50;;;16.80;99.90;;;;;;4185519;28;20050;-91
2022/07/07 07:06:10;;;;;;;4.47;0.40;;;16.80;99.90;;;;;;4219971;28;20040;-91
2022/07/07 07:08:11;;;;;;;4.72;0.75;;;16.80;99.90;;;;;;4185315;28;20047;-91
2022/07/07 07:10:30;;;;;;;5.40;0.95;;;16.80;99.90;;;;;;4189920;28;20104;-92
2022/07/07 07:12:33;;;;;;;;;;;16.60;99.90;;;;;;4185289;28;20053;-91
2022/07/07 07:14:34;;;;;;;4.20;0.75;;;16.60;99.90;;;;;;4185752;28;19925;-91
2022/07/07 07:16:36;;;;;;;2.40;1.05;;;16.60;99.90;;;;;;4204008;28;20058;-92
2022/07/07 07:18:37;;;;;;;5.38;0.52;;;16.60;99.90;;;;;;4203243;28;20048;-92
2022/07/07 07:20:40;;;;;;;3.78;0.60;;;16.70;99.90;;;;;;4182742;28;20075;-92
2022/07/07 07:22:41;;;;;;;3.03;0.50;;;16.70;99.90;;;;;;4199439;28;20480;-91
2022/07/07 07:24:43;;;;;;;6.93;0.60;;;16.90;99.90;;;;;;4199731;28;20056;-92
2022/07/07 07:26:44;;;;;;;5.25;0.65;;;17.00;99.90;;;;;;4202101;28;20079;-92
2022/07/07 07:28:46;;;;;;;4.97;0.70;;;17.10;99.90;;;;;;4171946;28;20053;-92
2022/07/07 07:30:46;;;;;;;3.08;0.40;;;17.20;99.90;;;;;;4202387;28;20045;-93
2022/07/07 07:32:47;;;;;;;4.03;0.50;;;17.20;99.90;;;;;;4167245;28;20093;-92
2022/07/07 07:34:48;;;;;;;3.08;0.43;;;17.20;99.90;;;;;;4184179;28;20053;-92
2022/07/07 07:36:49;;;;;;;2.60;0.40;;;17.10;99.90;;;;;;4200714;28;20049;-93
2022/07/07 07:38:50;;;;;;;3.10;0.85;;;17.10;99.90;;;;;;4168350;28;20037;-92
2022/07/07 07:40:51;;;;;;;4.75;0.50;;;16.90;99.90;;;;;;4183521;28;20045;-92
2022/07/07 07:42:54;;;;;;;0.95;0.20;;;17.00;99.90;;;;;;4201289;28;20086;-92
2022/07/07 07:45:11;;;;;;;3.42;0.30;;;17.00;99.90;;;;;;4201295;28;20048;-93
2022/07/07 07:47:15;;;;;;;5.10;0.65;;;17.00;99.90;;;;;;4211466;28;20049;-93
2022/07/07 07:49:16;;;;;;;3.30;0.20;;;17.10;99.90;;;;;;4166441;28;20432;-91
2022/07/07 07:51:17;;;;;;;2.63;0.30;;;17.20;99.90;;;;;;4166338;28;20042;-92
2022/07/07 07:53:18;;;;;;;3.33;1.00;;;17.30;99.90;;;;;;4199555;28;20094;-91
2022/07/07 07:55:21;;;;;;;4.63;0.52;;;17.50;99.90;;;;;;4165787;28;20491;-91
2022/07/07 07:57:23;;;;;;;13.35;1.50;;;17.60;99.90;;;;;;4182204;28;20040;-91
2022/07/07 07:59:24;;;;;;;4.72;0.40;;;17.70;99.90;;;;;;4166223;28;20044;-91
2022/07/07 08:01:25;;;;;;;7.68;0.95;;;17.80;99.90;;;;;;4208754;28;20135;-90
2022/07/07 08:03:28;;;;;;;4.65;0.70;;;17.70;99.90;;;;;;4166114;28;20103;-88
2022/07/07 08:05:30;;;;;;;5.13;1.08;;;17.70;99.90;;;;;;4183730;28;20053;-90
2022/07/07 08:07:32;;;;;;;6.18;0.50;;;17.70;99.90;;;;;;4197411;28;20045;-87
2022/07/07 08:09:33;;;;;;;3.38;0.75;;;17.80;99.90;;;;;;4181969;28;20067;-87
2022/07/07 08:11:34;;;;;;;5.22;0.60;;;17.90;99.90;;;;;;4197839;28;20066;-86
2022/07/07 08:13:34;;;;;;;2.75;0.50;;;18.10;99.90;;;;;;4164450;28;20183;-87
2022/07/07 08:15:35;;;;;;;6.57;0.85;;;18.30;99.90;;;;;;4197594;28;20538;-87
2022/07/07 08:17:36;;;;;;;4.57;0.55;;;18.50;99.90;;;;;;4181552;28;20051;-88
2022/07/07 08:19:37;;;;;;;5.30;0.60;;;18.70;99.90;;;;;;4196898;28;20040;-86
2022/07/07 08:21:37;;;;;;;6.28;0.82;;;18.90;99.90;;;;;;4181257;28;20404;-87
2022/07/07 08:23:38;;;;;;;4.75;0.70;;;19.00;99.90;;;;;;4182203;28;20066;-87
2022/07/07 08:25:39;;;;;;;2.50;0.50;;;19.00;99.90;;;;;;4182042;28;20033;-87
2022/07/07 08:27:40;;;;;;;3.28;0.98;;;18.80;99.90;;;;;;4180743;28;20049;-86
2022/07/07 08:29:41;;;;;;;3.92;0.80;;;18.70;99.90;;;;;;4163726;28;20084;-87
2022/07/07 08:31:42;;;;;;;6.80;0.73;;;18.50;99.90;;;;;;4184225;28;20066;-86
2022/07/07 08:33:43;;;;;;;4.90;0.98;;;18.40;99.90;;;;;;4187355;28;20037;-86
2022/07/07 08:35:44;;;;;;;11.13;1.55;;;18.30;99.90;;;;;;4182953;28;20075;-90
2022/07/07 08:37:44;;;;;;;8.45;1.10;;;18.20;99.90;;;;;;4181786;28;20517;-91
2022/07/07 08:39:45;;;;;;;6.15;0.95;;;18.30;99.90;;;;;;4166969;28;20068;-91
2022/07/07 08:41:47;;;;;;;10.15;1.75;;;18.30;99.90;;;;;;4215799;28;20036;-92
2022/07/07 08:43:50;;;;;;;5.75;1.73;;;18.30;99.90;;;;;;4177777;28;20046;-91
2022/07/07 08:45:52;;;;;;;4.35;1.20;;;18.40;99.90;;;;;;4168169;28;20049;-91
2022/07/07 08:47:54;;;;;;;2.85;0.70;;;18.40;99.90;;;;;;4181982;28;20090;-92
2022/07/07 08:49:55;;;;;;;5.47;1.23;;;18.40;99.90;;;;;;4182496;28;20045;-91
2022/07/07 08:51:57;;;;;;;9.68;0.80;;;18.50;99.90;;;;;;4165752;28;20429;-92
2022/07/07 08:54:01;;;;;;;5.60;1.05;;;18.70;99.90;;;;;;4165029;28;20132;-93
2022/07/07 08:56:07;;;;;;;8.57;1.48;;;18.70;99.90;;;;;;4167917;28;20037;-93
2022/07/07 08:58:14;;;;;;;8.13;1.27;;;18.60;99.90;;;;;;4180795;28;20041;-89
2022/07/07 09:00:16;;;;;;;6.40;1.23;;;18.50;99.90;;;;;;4198871;28;20071;-93
2022/07/07 09:02:17;;;;;;;11.23;1.38;;;18.50;99.90;;;;;;4182483;28;20548;-91
2022/07/07 09:04:28;;;;;;;6.82;1.67;;;18.60;99.90;;;;;;4215639;28;20081;-95
2022/07/07 09:06:33;;;;;;;2.83;0.93;;;18.60;99.90;;;;;;4185861;28;20045;-91
2022/07/07 09:08:37;;;;;;;4.28;0.98;;;18.60;99.90;;;;;;4186845;28;20079;-94
2022/07/07 09:10:39;;;;;;;4.32;0.73;;;18.50;99.90;;;;;;4186509;28;20045;-91
2022/07/07 09:12:47;;;;;;;2.53;0.98;;;18.50;99.90;;;;;;4219116;28;20043;-92
2022/07/07 09:14:53;;;;;;;5.30;0.63;;;18.50;99.90;;;;;;4187201;28;20071;-92
2022/07/07 09:17:12;;;;;;;2.08;0.50;;;18.50;99.90;;;;;;4184479;28;20045;-94
2022/07/07 09:19:20;;;;;;;4.25;0.60;;;18.50;99.90;;;;;;4201947;28;20044;-89
2022/07/07 09:21:29;;;;;;;4.00;0.63;;;18.40;99.90;;;;;;4204845;28;20052;-93
2022/07/07 09:23:32;;;;;;;;;;;18.40;99.90;;;;;;4188173;28;20523;-92
2022/07/07 09:25:33;;;;;;;6.28;0.90;;;18.50;99.90;;;;;;4185921;28;19932;-92
2022/07/07 09:27:57;;;;;;;7.30;1.85;;;18.70;99.90;;;;;;4203228;28;20055;-93
2022/07/07 09:29:59;;;;;;;8.32;1.33;;;18.80;99.90;;;;;;4187701;28;20081;-91
2022/07/07 09:32:04;;;;;;;5.28;0.80;;;18.90;99.90;;;;;;4185724;28;20047;-92
2022/07/07 09:34:12;;;;;;;6.28;1.48;;;18.80;99.90;;;;;;4186908;28;20044;-91
2022/07/07 09:38:41;;;;;;;2.05;0.70;;;18.60;99.90;;;;;;4201074;28;20048;-92
2022/07/07 09:41:00;;;;;;;4.90;1.63;;;18.40;99.90;;;;;;4184447;28;20044;-91
2022/07/07 09:43:02;;;;;;;4.93;1.40;;;18.30;99.90;;;;;;4185439;28;20045;-93
2022/07/07 09:45:08;;;;;;;6.57;1.10;;;18.30;99.90;;;;;;4201553;28;20044;-93
2022/07/07 09:47:09;;;;;;;7.13;0.95;;;18.30;99.90;;;;;;4200717;28;20052;-93
2022/07/07 09:49:12;;;;;;;5.63;0.95;;;18.40;99.90;;;;;;4188823;28;20126;-93
2022/07/07 09:51:23;;;;;;;12.10;1.33;;;18.30;99.90;;;;;;4200617;28;20037;-93
2022/07/07 09:53:23;;;;;;;2.38;0.40;;;18.30;99.90;;;;;;4218641;28;20043;-93
2022/07/07 09:55:24;;;;;;;3.92;0.60;;;18.30;99.90;;;;;;4168535;28;20045;-93
2022/07/07 09:57:25;;;;;;;3.60;0.80;;;18.30;99.90;;;;;;4201375;28;20053;-92
2022/07/07 09:59:32;;;;;;;3.78;0.70;;;18.40;99.90;;;;;;4200956;28;20048;-93
2022/07/07 10:01:38;;;;;;;3.30;0.70;;;18.50;99.90;;;;;;4200705;28;20075;-87
2022/07/07 10:03:44;;;;;;;4.55;0.70;;;18.50;99.90;;;;;;4199717;28;20076;-91
2022/07/07 10:05:45;;;;;;;8.73;0.88;;;18.50;99.90;;;;;;4200272;28;20057;-91
2022/07/07 10:07:50;;;;;;;2.10;0.80;;;18.40;99.90;;;;;;4167306;28;20054;-91
2022/07/07 10:09:59;;;;;;;6.50;1.00;;;18.30;99.90;;;;;;4217281;28;20113;-90
2022/07/07 10:12:03;;;;;;;8.45;1.42;;;18.40;99.90;;;;;;4216391;28;20084;-91
2022/07/07 10:14:14;;;;;;;11.85;1.38;;;18.40;99.90;;;;;;4200988;28;20500;-91
2022/07/07 10:16:16;;;;;;;7.45;1.02;;;18.20;99.90;;;;;;4200679;28;20047;-91
2022/07/07 10:18:17;;;;;;;7.88;1.48;;;18.10;99.90;;;;;;4185296;28;20045;-91
2022/07/07 10:20:18;;;;;;;7.95;1.27;;;17.90;99.90;;;;;;4202307;28;20070;-90
2022/07/07 10:22:21;;;;;;;5.22;0.98;;;17.90;99.90;;;;;;4208772;28;20048;-90
2022/07/07 10:24:29;;;;;;;13.18;1.88;;;17.90;99.90;;;;;;4185150;28;20109;-90
2022/07/07 10:26:42;;;;;;;10.27;1.30;;;17.80;99.90;;;;;;4218389;28;20036;-91
2022/07/07 10:28:56;;;;;;;13.25;1.50;;;17.90;99.90;;;;;;4232850;28;20123;-90
2022/07/07 10:31:19;;;;;;;12.95;1.30;;;17.90;99.90;;;;;;4200028;28;20059;-91
2022/07/07 10:33:21;;;;;;;9.15;1.23;;;17.90;99.90;;;;;;4200121;28;20050;-91
2022/07/07 10:35:25;;;;;;;15.55;2.25;;;17.90;99.90;;;;;;4200129;28;20663;-92
2022/07/07 10:37:27;;;;;;;16.38;1.73;;;17.90;99.90;;;;;;4184477;28;20049;-91
2022/07/07 10:39:37;;;;;;;11.90;1.60;;;17.90;99.90;;;;;;4200194;28;20040;-91